sensor_id;sensor_type;location;lat;lon;timestamp;P1;durP1;ratioP1;P2;durP2;ratioP2
3095;SDS011;1558;42.700;23.360;2022-07-06T00:00:40;3.17;;;2.80;;
3095;SDS011;1558;42.700;23.360;2022-07-06T00:03:08;2.00;;;1.90;;
3095;SDS011;1558;42.700;23.360;2022-07-06T00:05:36;2.03;;;1.57;;
3095;SDS011;1558;42.700;23.360;2022-07-06T00:08:04;2.97;;;1.77;;
3095;SDS011;1558;42.700;23.360;2022-07-06T00:10:32;3.43;;;2.10;;
3095;SDS011;1558;42.700;23.360;2022-07-06T00:13:00;4.93;;;2.40;;
3095;SDS011;1558;42.700;23.360;2022-07-06T00:15:29;2.83;;;2.30;;
3095;SDS011;1558;42.700;23.360;2022-07-06T00:17:57;2.93;;;2.43;;
3095;SDS011;1558;42.700;23.360;2022-07-06T00:20:25;2.97;;;2.57;;
3095;SDS011;1558;42.700;23.360;2022-07-06T00:22:53;2.87;;;2.27;;
3095;SDS011;1558;42.700;23.360;2022-07-06T00:25:21;3.10;;;2.50;;
3095;SDS011;1558;42.700;23.360;2022-07-06T00:27:49;2.17;;;1.90;;
3095;SDS011;1558;42.700;23.360;2022-07-06T00:30:17;1.87;;;1.73;;
3095;SDS011;1558;42.700;23.360;2022-07-06T00:32:47;3.43;;;2.10;;
3095;SDS011;1558;42.700;23.360;2022-07-06T00:35:15;2.50;;;2.10;;
3095;SDS011;1558;42.700;23.360;2022-07-06T00:37:43;3.30;;;2.20;;
3095;SDS011;1558;42.700;23.360;2022-07-06T00:40:11;2.53;;;2.30;;
3095;SDS011;1558;42.700;23.360;2022-07-06T00:42:40;3.40;;;2.20;;
3095;SDS011;1558;42.700;23.360;2022-07-06T00:45:09;1.73;;;1.60;;
3095;SDS011;1558;42.700;23.360;2022-07-06T00:47:37;2.40;;;2.10;;
3095;SDS011;1558;42.700;23.360;2022-07-06T00:50:08;3.93;;;1.97;;
3095;SDS011;1558;42.700;23.360;2022-07-06T00:52:47;4.10;;;2.30;;
3095;SDS011;1558;42.700;23.360;2022-07-06T00:55:17;1.87;;;1.70;;
3095;SDS011;1558;42.700;23.360;2022-07-06T00:57:46;3.43;;;2.20;;
3095;SDS011;1558;42.700;23.360;2022-07-06T01:00:15;4.17;;;2.40;;
3095;SDS011;1558;42.700;23.360;2022-07-06T01:02:45;3.53;;;2.10;;
3095;SDS011;1558;42.700;23.360;2022-07-06T01:05:15;2.37;;;1.90;;
3095;SDS011;1558;42.700;23.360;2022-07-06T01:07:44;4.60;;;2.10;;
3095;SDS011;1558;42.700;23.360;2022-07-06T01:10:13;2.97;;;2.67;;
3095;SDS011;1558;42.700;23.360;2022-07-06T01:12:44;5.40;;;2.60;;
3095;SDS011;1558;42.700;23.360;2022-07-06T01:15:14;2.93;;;2.00;;
3095;SDS011;1558;42.700;23.360;2022-07-06T01:17:44;3.00;;;1.80;;
3095;SDS011;1558;42.700;23.360;2022-07-06T01:20:14;2.63;;;2.13;;
3095;SDS011;1558;42.700;23.360;2022-07-06T01:22:42;3.00;;;2.03;;
3095;SDS011;1558;42.700;23.360;2022-07-06T01:25:10;4.10;;;2.00;;
3095;SDS011;1558;42.700;23.360;2022-07-06T01:27:39;1.77;;;1.67;;
3095;SDS011;1558;42.700;23.360;2022-07-06T01:30:09;3.93;;;2.37;;
3095;SDS011;1558;42.700;23.360;2022-07-06T01:32:38;5.00;;;2.50;;
3095;SDS011;1558;42.700;23.360;2022-07-06T01:35:08;2.27;;;1.90;;
3095;SDS011;1558;42.700;23.360;2022-07-06T01:37:38;3.13;;;1.60;;
3095;SDS011;1558;42.700;23.360;2022-07-06T01:40:07;2.23;;;1.90;;
3095;SDS011;1558;42.700;23.360;2022-07-06T01:42:37;3.13;;;2.83;;
3095;SDS011;1558;42.700;23.360;2022-07-06T01:45:07;6.63;;;2.97;;
3095;SDS011;1558;42.700;23.360;2022-07-06T01:47:35;4.93;;;2.93;;
3095;SDS011;1558;42.700;23.360;2022-07-06T01:50:04;2.73;;;1.83;;
3095;SDS011;1558;42.700;23.360;2022-07-06T01:52:34;3.30;;;2.13;;
3095;SDS011;1558;42.700;23.360;2022-07-06T01:55:05;4.23;;;1.93;;
3095;SDS011;1558;42.700;23.360;2022-07-06T01:57:33;4.07;;;3.07;;
3095;SDS011;1558;42.700;23.360;2022-07-06T02:00:01;4.17;;;2.47;;
3095;SDS011;1558;42.700;23.360;2022-07-06T02:02:30;5.17;;;2.90;;
3095;SDS011;1558;42.700;23.360;2022-07-06T02:04:58;3.03;;;2.70;;
3095;SDS011;1558;42.700;23.360;2022-07-06T02:07:26;3.53;;;3.00;;
3095;SDS011;1558;42.700;23.360;2022-07-06T02:09:54;3.27;;;2.40;;
3095;SDS011;1558;42.700;23.360;2022-07-06T02:12:23;2.90;;;2.47;;
3095;SDS011;1558;42.700;23.360;2022-07-06T02:14:51;3.27;;;2.07;;
3095;SDS011;1558;42.700;23.360;2022-07-06T02:17:19;2.27;;;2.07;;
3095;SDS011;1558;42.700;23.360;2022-07-06T02:19:47;2.93;;;1.80;;
3095;SDS011;1558;42.700;23.360;2022-07-06T02:22:15;2.67;;;2.10;;
3095;SDS011;1558;42.700;23.360;2022-07-06T02:24:43;2.23;;;1.80;;
3095;SDS011;1558;42.700;23.360;2022-07-06T02:27:11;2.17;;;1.97;;
3095;SDS011;1558;42.700;23.360;2022-07-06T02:29:40;2.00;;;1.80;;
3095;SDS011;1558;42.700;23.360;2022-07-06T02:32:08;2.10;;;1.90;;
3095;SDS011;1558;42.700;23.360;2022-07-06T02:34:36;2.00;;;1.80;;
3095;SDS011;1558;42.700;23.360;2022-07-06T02:37:04;2.20;;;2.00;;
3095;SDS011;1558;42.700;23.360;2022-07-06T02:39:32;1.57;;;1.47;;
3095;SDS011;1558;42.700;23.360;2022-07-06T02:42:00;2.87;;;2.20;;
3095;SDS011;1558;42.700;23.360;2022-07-06T02:44:28;2.40;;;1.87;;
3095;SDS011;1558;42.700;23.360;2022-07-06T02:46:57;3.53;;;2.33;;
3095;SDS011;1558;42.700;23.360;2022-07-06T02:49:25;1.83;;;1.67;;
3095;SDS011;1558;42.700;23.360;2022-07-06T02:51:53;2.00;;;1.80;;
3095;SDS011;1558;42.700;23.360;2022-07-06T02:54:21;3.40;;;2.13;;
3095;SDS011;1558;42.700;23.360;2022-07-06T02:56:49;4.57;;;1.90;;
3095;SDS011;1558;42.700;23.360;2022-07-06T02:59:19;2.10;;;1.57;;
3095;SDS011;1558;42.700;23.360;2022-07-06T03:01:48;4.43;;;2.73;;
3095;SDS011;1558;42.700;23.360;2022-07-06T03:04:17;3.50;;;2.50;;
3095;SDS011;1558;42.700;23.360;2022-07-06T03:06:45;2.50;;;2.20;;
3095;SDS011;1558;42.700;23.360;2022-07-06T03:09:13;3.73;;;2.30;;
3095;SDS011;1558;42.700;23.360;2022-07-06T03:11:41;2.50;;;1.67;;
3095;SDS011;1558;42.700;23.360;2022-07-06T03:14:09;2.93;;;2.00;;
3095;SDS011;1558;42.700;23.360;2022-07-06T03:16:37;3.00;;;2.70;;
3095;SDS011;1558;42.700;23.360;2022-07-06T03:19:05;3.23;;;1.93;;
3095;SDS011;1558;42.700;23.360;2022-07-06T03:21:35;2.10;;;1.97;;
3095;SDS011;1558;42.700;23.360;2022-07-06T03:24:03;2.77;;;2.33;;
3095;SDS011;1558;42.700;23.360;2022-07-06T03:26:32;2.17;;;1.97;;
3095;SDS011;1558;42.700;23.360;2022-07-06T03:29:00;7.63;;;2.80;;
3095;SDS011;1558;42.700;23.360;2022-07-06T03:31:27;2.60;;;2.37;;
3095;SDS011;1558;42.700;23.360;2022-07-06T03:33:56;2.87;;;1.70;;
3095;SDS011;1558;42.700;23.360;2022-07-06T03:36:24;2.93;;;1.90;;
3095;SDS011;1558;42.700;23.360;2022-07-06T03:38:53;2.93;;;2.27;;
3095;SDS011;1558;42.700;23.360;2022-07-06T03:41:21;3.30;;;1.80;;
3095;SDS011;1558;42.700;23.360;2022-07-06T03:43:49;2.40;;;2.13;;
3095;SDS011;1558;42.700;23.360;2022-07-06T03:46:17;1.73;;;1.63;;
3095;SDS011;1558;42.700;23.360;2022-07-06T03:48:45;1.67;;;1.50;;
3095;SDS011;1558;42.700;23.360;2022-07-06T03:51:13;3.00;;;2.10;;
3095;SDS011;1558;42.700;23.360;2022-07-06T03:53:41;2.63;;;2.00;;
3095;SDS011;1558;42.700;23.360;2022-07-06T03:56:10;3.10;;;2.27;;
3095;SDS011;1558;42.700;23.360;2022-07-06T03:58:56;1.63;;;1.53;;
3095;SDS011;1558;42.700;23.360;2022-07-06T04:01:25;3.60;;;2.40;;
3095;SDS011;1558;42.700;23.360;2022-07-06T04:03:55;1.97;;;1.60;;
3095;SDS011;1558;42.700;23.360;2022-07-06T04:06:23;2.27;;;1.83;;
3095;SDS011;1558;42.700;23.360;2022-07-06T04:08:52;2.33;;;1.80;;
3095;SDS011;1558;42.700;23.360;2022-07-06T04:11:22;1.67;;;1.57;;
3095;SDS011;1558;42.700;23.360;2022-07-06T04:13:50;2.10;;;1.90;;
3095;SDS011;1558;42.700;23.360;2022-07-06T04:16:18;2.00;;;1.80;;
3095;SDS011;1558;42.700;23.360;2022-07-06T04:18:46;3.67;;;1.80;;
3095;SDS011;1558;42.700;23.360;2022-07-06T04:21:14;8.33;;;2.17;;
3095;SDS011;1558;42.700;23.360;2022-07-06T04:23:42;2.43;;;1.90;;
3095;SDS011;1558;42.700;23.360;2022-07-06T04:26:10;3.07;;;1.93;;
3095;SDS011;1558;42.700;23.360;2022-07-06T04:28:39;2.77;;;1.70;;
3095;SDS011;1558;42.700;23.360;2022-07-06T04:31:07;1.87;;;1.77;;
3095;SDS011;1558;42.700;23.360;2022-07-06T04:33:35;2.13;;;1.73;;
3095;SDS011;1558;42.700;23.360;2022-07-06T04:36:03;1.90;;;1.67;;
3095;SDS011;1558;42.700;23.360;2022-07-06T04:38:32;4.20;;;1.90;;
3095;SDS011;1558;42.700;23.360;2022-07-06T04:41:00;2.93;;;1.80;;
3095;SDS011;1558;42.700;23.360;2022-07-06T04:43:28;2.17;;;1.97;;
3095;SDS011;1558;42.700;23.360;2022-07-06T04:45:57;2.90;;;2.17;;
3095;SDS011;1558;42.700;23.360;2022-07-06T04:48:27;2.33;;;2.03;;
3095;SDS011;1558;42.700;23.360;2022-07-06T04:50:55;2.27;;;2.07;;
3095;SDS011;1558;42.700;23.360;2022-07-06T04:53:23;2.03;;;1.70;;
3095;SDS011;1558;42.700;23.360;2022-07-06T04:55:51;11.47;;;9.27;;
3095;SDS011;1558;42.700;23.360;2022-07-06T04:58:18;13.53;;;12.20;;
3095;SDS011;1558;42.700;23.360;2022-07-06T05:00:47;13.73;;;12.47;;
3095;SDS011;1558;42.700;23.360;2022-07-06T05:03:16;14.70;;;13.17;;
3095;SDS011;1558;42.700;23.360;2022-07-06T05:05:44;15.10;;;13.47;;
3095;SDS011;1558;42.700;23.360;2022-07-06T05:08:12;15.57;;;14.10;;
3095;SDS011;1558;42.700;23.360;2022-07-06T05:10:40;15.10;;;13.50;;
3095;SDS011;1558;42.700;23.360;2022-07-06T05:13:08;14.53;;;13.23;;
3095;SDS011;1558;42.700;23.360;2022-07-06T05:15:36;16.47;;;14.87;;
3095;SDS011;1558;42.700;23.360;2022-07-06T05:18:04;17.20;;;15.47;;
3095;SDS011;1558;42.700;23.360;2022-07-06T05:20:34;17.20;;;15.03;;
3095;SDS011;1558;42.700;23.360;2022-07-06T05:23:01;16.40;;;14.70;;
3095;SDS011;1558;42.700;23.360;2022-07-06T05:25:29;16.52;;;14.82;;
3095;SDS011;1558;42.700;23.360;2022-07-06T05:27:59;16.98;;;14.82;;
3095;SDS011;1558;42.700;23.360;2022-07-06T05:30:27;15.45;;;13.95;;
3095;SDS011;1558;42.700;23.360;2022-07-06T05:32:55;16.25;;;14.65;;
3095;SDS011;1558;42.700;23.360;2022-07-06T05:35:23;16.30;;;14.63;;
3095;SDS011;1558;42.700;23.360;2022-07-06T05:38:12;15.75;;;14.18;;
3095;SDS011;1558;42.700;23.360;2022-07-06T05:40:40;14.27;;;12.88;;
3095;SDS011;1558;42.700;23.360;2022-07-06T05:43:08;14.57;;;13.10;;
3095;SDS011;1558;42.700;23.360;2022-07-06T05:45:37;14.30;;;13.00;;
3095;SDS011;1558;42.700;23.360;2022-07-06T05:48:05;14.23;;;12.93;;
3095;SDS011;1558;42.700;23.360;2022-07-06T05:50:59;14.65;;;13.25;;
3095;SDS011;1558;42.700;23.360;2022-07-06T05:53:28;14.85;;;13.48;;
3095;SDS011;1558;42.700;23.360;2022-07-06T05:55:56;13.65;;;12.25;;
3095;SDS011;1558;42.700;23.360;2022-07-06T05:58:24;13.48;;;12.38;;
3095;SDS011;1558;42.700;23.360;2022-07-06T06:00:53;13.75;;;12.57;;
3095;SDS011;1558;42.700;23.360;2022-07-06T06:03:21;14.18;;;12.80;;
3095;SDS011;1558;42.700;23.360;2022-07-06T06:05:50;14.90;;;13.40;;
3095;SDS011;1558;42.700;23.360;2022-07-06T06:08:18;13.27;;;11.98;;
3095;SDS011;1558;42.700;23.360;2022-07-06T06:10:48;13.00;;;11.70;;
3095;SDS011;1558;42.700;23.360;2022-07-06T06:13:15;13.95;;;12.73;;
3095;SDS011;1558;42.700;23.360;2022-07-06T06:15:43;14.10;;;12.80;;
3095;SDS011;1558;42.700;23.360;2022-07-06T06:18:12;13.55;;;12.07;;
3095;SDS011;1558;42.700;23.360;2022-07-06T06:20:43;14.43;;;12.95;;
3095;SDS011;1558;42.700;23.360;2022-07-06T06:23:11;13.80;;;12.63;;
3095;SDS011;1558;42.700;23.360;2022-07-06T06:25:39;14.45;;;13.15;;
3095;SDS011;1558;42.700;23.360;2022-07-06T06:28:08;14.43;;;13.05;;
3095;SDS011;1558;42.700;23.360;2022-07-06T06:30:37;15.25;;;13.65;;
3095;SDS011;1558;42.700;23.360;2022-07-06T06:33:06;13.48;;;12.27;;
3095;SDS011;1558;42.700;23.360;2022-07-06T06:35:35;14.23;;;12.55;;
3095;SDS011;1558;42.700;23.360;2022-07-06T06:38:04;13.98;;;12.63;;
3095;SDS011;1558;42.700;23.360;2022-07-06T06:40:32;15.65;;;13.52;;
3095;SDS011;1558;42.700;23.360;2022-07-06T06:42:59;17.33;;;12.82;;
3095;SDS011;1558;42.700;23.360;2022-07-06T06:45:29;14.63;;;13.13;;
3095;SDS011;1558;42.700;23.360;2022-07-06T06:47:57;15.35;;;12.95;;
3095;SDS011;1558;42.700;23.360;2022-07-06T06:50:25;13.88;;;12.68;;
3095;SDS011;1558;42.700;23.360;2022-07-06T06:52:54;13.23;;;12.02;;
3095;SDS011;1558;42.700;23.360;2022-07-06T06:55:22;12.43;;;11.25;;
3095;SDS011;1558;42.700;23.360;2022-07-06T06:57:50;12.85;;;11.63;;
3095;SDS011;1558;42.700;23.360;2022-07-06T07:00:18;13.52;;;12.30;;
3095;SDS011;1558;42.700;23.360;2022-07-06T07:02:47;14.55;;;12.60;;
3095;SDS011;1558;42.700;23.360;2022-07-06T07:05:15;13.98;;;12.70;;
3095;SDS011;1558;42.700;23.360;2022-07-06T07:07:43;13.60;;;12.32;;
3095;SDS011;1558;42.700;23.360;2022-07-06T07:10:11;14.90;;;13.32;;
3095;SDS011;1558;42.700;23.360;2022-07-06T07:12:43;13.73;;;12.50;;
3095;SDS011;1558;42.700;23.360;2022-07-06T07:15:12;13.90;;;12.60;;
3095;SDS011;1558;42.700;23.360;2022-07-06T07:17:40;13.27;;;12.07;;
3095;SDS011;1558;42.700;23.360;2022-07-06T07:20:10;13.75;;;12.60;;
3095;SDS011;1558;42.700;23.360;2022-07-06T07:22:39;14.35;;;13.05;;
3095;SDS011;1558;42.700;23.360;2022-07-06T07:25:07;14.80;;;13.48;;
3095;SDS011;1558;42.700;23.360;2022-07-06T07:27:36;14.85;;;13.57;;
3095;SDS011;1558;42.700;23.360;2022-07-06T07:30:04;14.82;;;13.43;;
3095;SDS011;1558;42.700;23.360;2022-07-06T07:32:33;15.85;;;14.18;;
3095;SDS011;1558;42.700;23.360;2022-07-06T07:35:01;14.93;;;13.60;;
3095;SDS011;1558;42.700;23.360;2022-07-06T07:37:30;14.25;;;12.85;;
3095;SDS011;1558;42.700;23.360;2022-07-06T07:39:58;15.23;;;13.82;;
3095;SDS011;1558;42.700;23.360;2022-07-06T07:42:26;14.55;;;13.32;;
3095;SDS011;1558;42.700;23.360;2022-07-06T07:44:54;14.02;;;12.65;;
3095;SDS011;1558;42.700;23.360;2022-07-06T07:47:22;14.50;;;13.10;;
3095;SDS011;1558;42.700;23.360;2022-07-06T07:49:51;15.32;;;13.68;;
3095;SDS011;1558;42.700;23.360;2022-07-06T07:52:19;14.27;;;12.82;;
3095;SDS011;1558;42.700;23.360;2022-07-06T07:54:49;12.88;;;11.82;;
3095;SDS011;1558;42.700;23.360;2022-07-06T07:57:36;13.65;;;12.25;;
3095;SDS011;1558;42.700;23.360;2022-07-06T08:00:05;13.20;;;12.05;;
3095;SDS011;1558;42.700;23.360;2022-07-06T08:02:33;12.68;;;11.60;;
3095;SDS011;1558;42.700;23.360;2022-07-06T08:05:01;13.32;;;12.18;;
3095;SDS011;1558;42.700;23.360;2022-07-06T08:07:30;13.05;;;11.93;;
3095;SDS011;1558;42.700;23.360;2022-07-06T08:09:59;12.18;;;10.98;;
3095;SDS011;1558;42.700;23.360;2022-07-06T08:12:28;13.75;;;12.38;;
3095;SDS011;1558;42.700;23.360;2022-07-06T08:14:56;14.52;;;13.32;;
3095;SDS011;1558;42.700;23.360;2022-07-06T08:17:25;14.02;;;12.95;;
3095;SDS011;1558;42.700;23.360;2022-07-06T08:19:53;14.48;;;13.27;;
3095;SDS011;1558;42.700;23.360;2022-07-06T08:22:21;14.48;;;13.15;;
3095;SDS011;1558;42.700;23.360;2022-07-06T08:24:49;13.68;;;12.35;;
3095;SDS011;1558;42.700;23.360;2022-07-06T08:27:18;13.75;;;12.57;;
3095;SDS011;1558;42.700;23.360;2022-07-06T08:29:46;14.32;;;12.93;;
3095;SDS011;1558;42.700;23.360;2022-07-06T08:32:14;13.52;;;12.40;;
3095;SDS011;1558;42.700;23.360;2022-07-06T08:35:02;14.02;;;13.02;;
3095;SDS011;1558;42.700;23.360;2022-07-06T08:37:31;13.95;;;12.80;;
3095;SDS011;1558;42.700;23.360;2022-07-06T08:39:59;15.90;;;14.30;;
3095;SDS011;1558;42.700;23.360;2022-07-06T08:42:29;13.93;;;12.82;;
3095;SDS011;1558;42.700;23.360;2022-07-06T08:44:59;15.02;;;13.43;;
3095;SDS011;1558;42.700;23.360;2022-07-06T08:47:28;19.27;;;17.33;;
3095;SDS011;1558;42.700;23.360;2022-07-06T08:49:57;13.68;;;12.48;;
3095;SDS011;1558;42.700;23.360;2022-07-06T08:52:25;14.23;;;13.00;;
3095;SDS011;1558;42.700;23.360;2022-07-06T08:54:53;13.85;;;12.50;;
3095;SDS011;1558;42.700;23.360;2022-07-06T08:57:21;13.30;;;12.20;;
3095;SDS011;1558;42.700;23.360;2022-07-06T08:59:53;12.88;;;11.88;;
3095;SDS011;1558;42.700;23.360;2022-07-06T09:02:22;12.57;;;11.32;;
3095;SDS011;1558;42.700;23.360;2022-07-06T09:04:53;12.10;;;10.68;;
3095;SDS011;1558;42.700;23.360;2022-07-06T09:07:23;12.52;;;11.52;;
3095;SDS011;1558;42.700;23.360;2022-07-06T09:10:14;14.75;;;13.63;;
3095;SDS011;1558;42.700;23.360;2022-07-06T09:12:45;13.57;;;12.38;;
3095;SDS011;1558;42.700;23.360;2022-07-06T09:15:14;14.80;;;13.50;;
3095;SDS011;1558;42.700;23.360;2022-07-06T09:17:43;14.27;;;13.00;;
3095;SDS011;1558;42.700;23.360;2022-07-06T09:20:12;14.35;;;13.25;;
3095;SDS011;1558;42.700;23.360;2022-07-06T09:22:40;15.25;;;14.15;;
3095;SDS011;1558;42.700;23.360;2022-07-06T09:25:09;15.75;;;14.43;;
3095;SDS011;1558;42.700;23.360;2022-07-06T09:27:39;15.48;;;14.20;;
3095;SDS011;1558;42.700;23.360;2022-07-06T09:30:09;14.65;;;13.43;;
3095;SDS011;1558;42.700;23.360;2022-07-06T09:32:40;14.40;;;13.10;;
3095;SDS011;1558;42.700;23.360;2022-07-06T09:35:18;14.02;;;12.68;;
3095;SDS011;1558;42.700;23.360;2022-07-06T09:37:47;14.70;;;13.23;;
3095;SDS011;1558;42.700;23.360;2022-07-06T09:40:26;14.75;;;13.45;;
3095;SDS011;1558;42.700;23.360;2022-07-06T09:43:06;14.73;;;13.52;;
3095;SDS011;1558;42.700;23.360;2022-07-06T09:45:39;14.02;;;12.73;;
3095;SDS011;1558;42.700;23.360;2022-07-06T09:48:10;14.23;;;12.98;;
3095;SDS011;1558;42.700;23.360;2022-07-06T09:50:40;14.15;;;12.75;;
3095;SDS011;1558;42.700;23.360;2022-07-06T09:53:10;13.98;;;12.57;;
3095;SDS011;1558;42.700;23.360;2022-07-06T09:55:38;15.48;;;14.27;;
3095;SDS011;1558;42.700;23.360;2022-07-06T09:58:06;16.17;;;14.90;;
3095;SDS011;1558;42.700;23.360;2022-07-06T10:00:34;15.77;;;14.48;;
3095;SDS011;1558;42.700;23.360;2022-07-06T10:03:03;16.65;;;15.20;;
3095;SDS011;1558;42.700;23.360;2022-07-06T10:05:33;15.65;;;14.52;;
3095;SDS011;1558;42.700;23.360;2022-07-06T10:08:04;16.15;;;14.50;;
3095;SDS011;1558;42.700;23.360;2022-07-06T10:10:36;16.40;;;15.20;;
3095;SDS011;1558;42.700;23.360;2022-07-06T10:13:05;15.40;;;14.20;;
3095;SDS011;1558;42.700;23.360;2022-07-06T10:15:34;14.40;;;13.27;;
3095;SDS011;1558;42.700;23.360;2022-07-06T10:18:04;14.02;;;12.93;;
3095;SDS011;1558;42.700;23.360;2022-07-06T10:20:35;13.68;;;12.68;;
3095;SDS011;1558;42.700;23.360;2022-07-06T10:23:05;14.95;;;13.75;;
3095;SDS011;1558;42.700;23.360;2022-07-06T10:25:33;15.35;;;14.07;;
3095;SDS011;1558;42.700;23.360;2022-07-06T10:28:02;16.33;;;14.93;;
3095;SDS011;1558;42.700;23.360;2022-07-06T10:30:40;17.45;;;15.80;;
3095;SDS011;1558;42.700;23.360;2022-07-06T10:33:09;14.73;;;13.38;;
3095;SDS011;1558;42.700;23.360;2022-07-06T10:35:41;16.40;;;14.98;;
3095;SDS011;1558;42.700;23.360;2022-07-06T10:38:11;15.77;;;14.57;;
3095;SDS011;1558;42.700;23.360;2022-07-06T10:40:40;16.23;;;14.88;;
3095;SDS011;1558;42.700;23.360;2022-07-06T10:43:33;15.95;;;14.45;;
3095;SDS011;1558;42.700;23.360;2022-07-06T10:46:05;14.68;;;13.57;;
3095;SDS011;1558;42.700;23.360;2022-07-06T10:48:34;14.98;;;13.98;;
3095;SDS011;1558;42.700;23.360;2022-07-06T10:51:04;15.27;;;13.80;;
3095;SDS011;1558;42.700;23.360;2022-07-06T10:53:33;13.63;;;12.63;;
3095;SDS011;1558;42.700;23.360;2022-07-06T10:56:04;14.82;;;13.63;;
3095;SDS011;1558;42.700;23.360;2022-07-06T10:58:34;14.90;;;13.60;;
3095;SDS011;1558;42.700;23.360;2022-07-06T11:01:03;15.07;;;14.00;;
3095;SDS011;1558;42.700;23.360;2022-07-06T11:03:33;15.05;;;13.85;;
3095;SDS011;1558;42.700;23.360;2022-07-06T11:06:04;17.55;;;16.13;;
3095;SDS011;1558;42.700;23.360;2022-07-06T11:08:43;16.30;;;15.10;;
3095;SDS011;1558;42.700;23.360;2022-07-06T11:11:17;17.15;;;15.85;;
3095;SDS011;1558;42.700;23.360;2022-07-06T11:13:53;15.98;;;14.88;;
3095;SDS011;1558;42.700;23.360;2022-07-06T11:16:24;17.27;;;15.93;;
3095;SDS011;1558;42.700;23.360;2022-07-06T11:19:03;18.05;;;16.45;;
3095;SDS011;1558;42.700;23.360;2022-07-06T11:21:45;16.52;;;15.25;;
3095;SDS011;1558;42.700;23.360;2022-07-06T11:24:15;16.75;;;15.55;;
3095;SDS011;1558;42.700;23.360;2022-07-06T11:26:46;15.77;;;14.68;;
3095;SDS011;1558;42.700;23.360;2022-07-06T11:29:15;19.05;;;17.17;;
3095;SDS011;1558;42.700;23.360;2022-07-06T11:31:44;18.23;;;16.83;;
3095;SDS011;1558;42.700;23.360;2022-07-06T11:34:17;23.02;;;21.17;;
3095;SDS011;1558;42.700;23.360;2022-07-06T11:36:47;18.70;;;17.08;;
3095;SDS011;1558;42.700;23.360;2022-07-06T11:39:16;16.60;;;15.30;;
3095;SDS011;1558;42.700;23.360;2022-07-06T11:41:44;17.45;;;16.00;;
3095;SDS011;1558;42.700;23.360;2022-07-06T11:44:17;16.10;;;14.80;;
3095;SDS011;1558;42.700;23.360;2022-07-06T11:46:45;14.07;;;12.95;;
3095;SDS011;1558;42.700;23.360;2022-07-06T11:49:14;15.63;;;13.82;;
3095;SDS011;1558;42.700;23.360;2022-07-06T11:51:42;17.20;;;15.60;;
3095;SDS011;1558;42.700;23.360;2022-07-06T11:54:13;15.50;;;14.40;;
3095;SDS011;1558;42.700;23.360;2022-07-06T11:56:46;17.10;;;15.90;;
3095;SDS011;1558;42.700;23.360;2022-07-06T11:59:15;17.85;;;16.20;;
3095;SDS011;1558;42.700;23.360;2022-07-06T12:01:44;16.27;;;14.90;;
3095;SDS011;1558;42.700;23.360;2022-07-06T12:04:12;16.05;;;14.88;;
3095;SDS011;1558;42.700;23.360;2022-07-06T12:06:40;15.52;;;14.43;;
3095;SDS011;1558;42.700;23.360;2022-07-06T12:09:12;16.17;;;14.85;;
3095;SDS011;1558;42.700;23.360;2022-07-06T12:11:41;15.57;;;14.18;;
3095;SDS011;1558;42.700;23.360;2022-07-06T12:14:13;16.23;;;14.93;;
3095;SDS011;1558;42.700;23.360;2022-07-06T12:16:43;16.17;;;14.95;;
3095;SDS011;1558;42.700;23.360;2022-07-06T12:19:12;15.85;;;14.15;;
3095;SDS011;1558;42.700;23.360;2022-07-06T12:21:44;15.77;;;14.60;;
3095;SDS011;1558;42.700;23.360;2022-07-06T12:24:21;14.25;;;13.25;;
3095;SDS011;1558;42.700;23.360;2022-07-06T12:26:51;15.65;;;14.32;;
3095;SDS011;1558;42.700;23.360;2022-07-06T12:29:20;15.15;;;13.75;;
3095;SDS011;1558;42.700;23.360;2022-07-06T12:31:49;16.95;;;15.65;;
3095;SDS011;1558;42.700;23.360;2022-07-06T12:34:19;15.68;;;14.45;;
3095;SDS011;1558;42.700;23.360;2022-07-06T12:36:49;15.40;;;14.07;;
3095;SDS011;1558;42.700;23.360;2022-07-06T12:39:20;14.07;;;12.80;;
3095;SDS011;1558;42.700;23.360;2022-07-06T12:41:50;14.35;;;12.57;;
3095;SDS011;1558;42.700;23.360;2022-07-06T12:44:19;13.57;;;12.45;;
3095;SDS011;1558;42.700;23.360;2022-07-06T12:46:49;12.63;;;11.57;;
3095;SDS011;1558;42.700;23.360;2022-07-06T12:49:19;13.05;;;11.95;;
3095;SDS011;1558;42.700;23.360;2022-07-06T12:51:59;14.27;;;13.02;;
3095;SDS011;1558;42.700;23.360;2022-07-06T12:54:31;12.48;;;11.32;;
3095;SDS011;1558;42.700;23.360;2022-07-06T12:57:01;13.45;;;12.30;;
3095;SDS011;1558;42.700;23.360;2022-07-06T12:59:33;14.13;;;13.10;;
3095;SDS011;1558;42.700;23.360;2022-07-06T13:02:02;11.77;;;10.88;;
3095;SDS011;1558;42.700;23.360;2022-07-06T13:04:32;12.20;;;11.15;;
3095;SDS011;1558;42.700;23.360;2022-07-06T13:07:00;10.70;;;9.95;;
3095;SDS011;1558;42.700;23.360;2022-07-06T13:09:35;10.93;;;10.00;;
3095;SDS011;1558;42.700;23.360;2022-07-06T13:12:05;12.18;;;11.20;;
3095;SDS011;1558;42.700;23.360;2022-07-06T13:14:36;10.98;;;10.07;;
3095;SDS011;1558;42.700;23.360;2022-07-06T13:17:05;13.95;;;10.18;;
3095;SDS011;1558;42.700;23.360;2022-07-06T13:19:35;11.43;;;10.52;;
3095;SDS011;1558;42.700;23.360;2022-07-06T13:22:05;10.65;;;9.70;;
3095;SDS011;1558;42.700;23.360;2022-07-06T13:24:36;9.57;;;8.70;;
3095;SDS011;1558;42.700;23.360;2022-07-06T13:27:05;9.93;;;9.05;;
3095;SDS011;1558;42.700;23.360;2022-07-06T13:29:33;9.48;;;8.55;;
3095;SDS011;1558;42.700;23.360;2022-07-06T13:32:01;8.50;;;7.85;;
3095;SDS011;1558;42.700;23.360;2022-07-06T13:34:30;9.45;;;7.03;;
3095;SDS011;1558;42.700;23.360;2022-07-06T13:36:58;8.02;;;7.35;;
3095;SDS011;1558;42.700;23.360;2022-07-06T13:39:26;8.15;;;6.72;;
3095;SDS011;1558;42.700;23.360;2022-07-06T13:41:55;6.07;;;5.68;;
3095;SDS011;1558;42.700;23.360;2022-07-06T13:44:24;6.20;;;5.80;;
3095;SDS011;1558;42.700;23.360;2022-07-06T13:46:52;5.15;;;4.85;;
3095;SDS011;1558;42.700;23.360;2022-07-06T13:49:20;5.03;;;4.63;;
3095;SDS011;1558;42.700;23.360;2022-07-06T13:51:56;5.80;;;4.78;;
3095;SDS011;1558;42.700;23.360;2022-07-06T13:54:30;5.75;;;5.25;;
3095;SDS011;1558;42.700;23.360;2022-07-06T13:57:00;5.80;;;5.32;;
3095;SDS011;1558;42.700;23.360;2022-07-06T13:59:29;8.20;;;5.45;;
3095;SDS011;1558;42.700;23.360;2022-07-06T14:01:58;5.90;;;5.28;;
3095;SDS011;1558;42.700;23.360;2022-07-06T14:04:26;5.22;;;4.72;;
3095;SDS011;1558;42.700;23.360;2022-07-06T14:06:54;5.47;;;4.97;;
3095;SDS011;1558;42.700;23.360;2022-07-06T14:09:22;5.20;;;4.75;;
3095;SDS011;1558;42.700;23.360;2022-07-06T14:11:50;4.60;;;4.30;;
3095;SDS011;1558;42.700;23.360;2022-07-06T14:14:20;5.30;;;4.90;;
3095;SDS011;1558;42.700;23.360;2022-07-06T14:16:48;4.63;;;4.25;;
3095;SDS011;1558;42.700;23.360;2022-07-06T14:19:17;4.90;;;4.45;;
3095;SDS011;1558;42.700;23.360;2022-07-06T14:21:47;4.78;;;4.38;;
3095;SDS011;1558;42.700;23.360;2022-07-06T14:24:15;5.82;;;4.30;;
3095;SDS011;1558;42.700;23.360;2022-07-06T14:26:43;4.78;;;4.30;;
3095;SDS011;1558;42.700;23.360;2022-07-06T14:29:11;4.80;;;4.35;;
3095;SDS011;1558;42.700;23.360;2022-07-06T14:31:41;5.00;;;4.60;;
3095;SDS011;1558;42.700;23.360;2022-07-06T14:34:09;4.72;;;4.35;;
3095;SDS011;1558;42.700;23.360;2022-07-06T14:36:37;4.80;;;4.30;;
3095;SDS011;1558;42.700;23.360;2022-07-06T14:39:05;3.95;;;3.65;;
3095;SDS011;1558;42.700;23.360;2022-07-06T14:41:33;5.22;;;4.25;;
3095;SDS011;1558;42.700;23.360;2022-07-06T14:44:02;4.60;;;4.10;;
3095;SDS011;1558;42.700;23.360;2022-07-06T14:46:30;5.20;;;4.60;;
3095;SDS011;1558;42.700;23.360;2022-07-06T14:49:00;6.07;;;4.15;;
3095;SDS011;1558;42.700;23.360;2022-07-06T14:51:28;4.78;;;4.20;;
3095;SDS011;1558;42.700;23.360;2022-07-06T14:53:56;4.50;;;4.10;;
3095;SDS011;1558;42.700;23.360;2022-07-06T14:56:24;4.80;;;4.30;;
3095;SDS011;1558;42.700;23.360;2022-07-06T14:58:52;5.80;;;4.28;;